sensor_id;sensor_type;location;lat;lon;timestamp;P1;durP1;ratioP1;P2;durP2;ratioP2
11665;SDS011;5889;51.350;6.708;2023-08-17T00:01:40;5.45;;;4.75;;
11665;SDS011;5889;51.350;6.708;2023-08-17T00:04:07;5.88;;;4.95;;
11665;SDS011;5889;51.350;6.708;2023-08-17T00:06:34;7.65;;;5.70;;
11665;SDS011;5889;51.350;6.708;2023-08-17T00:09:01;6.13;;;5.43;;
11665;SDS011;5889;51.350;6.708;2023-08-17T00:11:29;7.97;;;5.97;;
11665;SDS011;5889;51.350;6.708;2023-08-17T00:13:56;7.78;;;5.50;;
11665;SDS011;5889;51.350;6.708;2023-08-17T00:16:24;8.30;;;5.90;;
11665;SDS011;5889;51.350;6.708;2023-08-17T00:18:51;9.40;;;6.07;;
11665;SDS011;5889;51.350;6.708;2023-08-17T00:21:18;6.55;;;5.95;;
11665;SDS011;5889;51.350;6.708;2023-08-17T00:23:45;7.55;;;5.82;;
11665;SDS011;5889;51.350;6.708;2023-08-17T00:26:12;9.85;;;6.40;;
11665;SDS011;5889;51.350;6.708;2023-08-17T00:28:40;9.20;;;7.13;;
11665;SDS011;5889;51.350;6.708;2023-08-17T00:31:07;11.25;;;8.70;;
11665;SDS011;5889;51.350;6.708;2023-08-17T00:33:35;12.32;;;9.00;;
11665;SDS011;5889;51.350;6.708;2023-08-17T00:36:02;14.80;;;8.48;;
11665;SDS011;5889;51.350;6.708;2023-08-17T00:38:30;12.03;;;8.20;;
11665;SDS011;5889;51.350;6.708;2023-08-17T00:40:59;12.68;;;8.52;;
11665;SDS011;5889;51.350;6.708;2023-08-17T00:43:26;13.23;;;8.30;;
11665;SDS011;5889;51.350;6.708;2023-08-17T00:45:53;12.07;;;8.13;;
11665;SDS011;5889;51.350;6.708;2023-08-17T00:48:20;10.83;;;7.57;;
11665;SDS011;5889;51.350;6.708;2023-08-17T00:50:50;10.00;;;6.90;;
11665;SDS011;5889;51.350;6.708;2023-08-17T00:53:18;10.93;;;7.25;;
11665;SDS011;5889;51.350;6.708;2023-08-17T00:55:45;10.18;;;7.05;;
11665;SDS011;5889;51.350;6.708;2023-08-17T00:58:13;9.40;;;7.37;;
11665;SDS011;5889;51.350;6.708;2023-08-17T01:00:41;11.25;;;7.28;;
11665;SDS011;5889;51.350;6.708;2023-08-17T01:03:08;11.85;;;7.25;;
11665;SDS011;5889;51.350;6.708;2023-08-17T01:05:35;12.50;;;6.45;;
11665;SDS011;5889;51.350;6.708;2023-08-17T01:08:04;9.02;;;6.88;;
11665;SDS011;5889;51.350;6.708;2023-08-17T01:10:34;11.35;;;7.05;;
11665;SDS011;5889;51.350;6.708;2023-08-17T01:13:09;9.33;;;6.73;;
11665;SDS011;5889;51.350;6.708;2023-08-17T01:15:40;12.07;;;6.60;;
11665;SDS011;5889;51.350;6.708;2023-08-17T01:18:15;10.82;;;7.32;;
11665;SDS011;5889;51.350;6.708;2023-08-17T01:20:47;13.57;;;7.57;;
11665;SDS011;5889;51.350;6.708;2023-08-17T01:23:16;12.57;;;6.35;;
11665;SDS011;5889;51.350;6.708;2023-08-17T01:25:43;10.02;;;6.28;;
11665;SDS011;5889;51.350;6.708;2023-08-17T01:28:10;15.18;;;7.25;;
11665;SDS011;5889;51.350;6.708;2023-08-17T01:30:39;9.77;;;6.53;;
11665;SDS011;5889;51.350;6.708;2023-08-17T01:33:13;10.25;;;7.22;;
11665;SDS011;5889;51.350;6.708;2023-08-17T01:35:48;8.25;;;5.93;;
11665;SDS011;5889;51.350;6.708;2023-08-17T01:38:24;9.10;;;6.50;;
11665;SDS011;5889;51.350;6.708;2023-08-17T01:40:52;9.83;;;6.07;;
11665;SDS011;5889;51.350;6.708;2023-08-17T01:43:21;9.45;;;6.00;;
11665;SDS011;5889;51.350;6.708;2023-08-17T01:45:48;8.05;;;5.72;;
11665;SDS011;5889;51.350;6.708;2023-08-17T01:48:15;10.32;;;6.13;;
11665;SDS011;5889;51.350;6.708;2023-08-17T01:50:42;8.90;;;6.00;;
11665;SDS011;5889;51.350;6.708;2023-08-17T01:53:09;10.13;;;5.78;;
11665;SDS011;5889;51.350;6.708;2023-08-17T01:55:38;10.20;;;5.50;;
11665;SDS011;5889;51.350;6.708;2023-08-17T01:58:05;7.75;;;5.82;;
11665;SDS011;5889;51.350;6.708;2023-08-17T02:00:32;10.97;;;6.27;;
11665;SDS011;5889;51.350;6.708;2023-08-17T02:02:59;12.70;;;6.55;;
11665;SDS011;5889;51.350;6.708;2023-08-17T02:05:26;11.80;;;5.85;;
11665;SDS011;5889;51.350;6.708;2023-08-17T02:07:54;9.75;;;5.70;;
11665;SDS011;5889;51.350;6.708;2023-08-17T02:10:21;12.00;;;6.53;;
11665;SDS011;5889;51.350;6.708;2023-08-17T02:12:49;9.15;;;6.35;;
11665;SDS011;5889;51.350;6.708;2023-08-17T02:15:16;15.55;;;7.03;;
11665;SDS011;5889;51.350;6.708;2023-08-17T02:17:43;12.07;;;7.27;;
11665;SDS011;5889;51.350;6.708;2023-08-17T02:20:10;12.85;;;7.05;;
11665;SDS011;5889;51.350;6.708;2023-08-17T02:22:39;10.25;;;7.22;;
11665;SDS011;5889;51.350;6.708;2023-08-17T02:25:06;17.33;;;7.47;;
11665;SDS011;5889;51.350;6.708;2023-08-17T02:27:34;10.55;;;7.68;;
11665;SDS011;5889;51.350;6.708;2023-08-17T02:30:03;11.00;;;7.60;;
11665;SDS011;5889;51.350;6.708;2023-08-17T02:32:30;9.45;;;7.65;;
11665;SDS011;5889;51.350;6.708;2023-08-17T02:34:57;11.65;;;8.57;;
11665;SDS011;5889;51.350;6.708;2023-08-17T02:37:24;12.63;;;7.50;;
11665;SDS011;5889;51.350;6.708;2023-08-17T02:39:51;12.70;;;7.40;;
11665;SDS011;5889;51.350;6.708;2023-08-17T02:42:18;10.82;;;6.88;;
11665;SDS011;5889;51.350;6.708;2023-08-17T02:44:45;9.87;;;6.60;;
11665;SDS011;5889;51.350;6.708;2023-08-17T02:47:12;7.78;;;5.90;;
11665;SDS011;5889;51.350;6.708;2023-08-17T02:49:39;8.90;;;6.50;;
11665;SDS011;5889;51.350;6.708;2023-08-17T02:52:06;9.85;;;6.43;;
11665;SDS011;5889;51.350;6.708;2023-08-17T02:54:33;11.13;;;6.93;;
11665;SDS011;5889;51.350;6.708;2023-08-17T02:57:00;11.90;;;7.00;;
11665;SDS011;5889;51.350;6.708;2023-08-17T02:59:27;11.88;;;7.80;;
11665;SDS011;5889;51.350;6.708;2023-08-17T03:01:54;10.67;;;7.50;;
11665;SDS011;5889;51.350;6.708;2023-08-17T03:04:22;12.80;;;8.70;;
11665;SDS011;5889;51.350;6.708;2023-08-17T03:06:49;13.88;;;8.55;;
11665;SDS011;5889;51.350;6.708;2023-08-17T03:09:16;10.50;;;7.97;;
11665;SDS011;5889;51.350;6.708;2023-08-17T03:11:43;16.07;;;8.47;;
11665;SDS011;5889;51.350;6.708;2023-08-17T03:14:10;12.30;;;8.67;;
11665;SDS011;5889;51.350;6.708;2023-08-17T03:16:37;14.40;;;9.07;;
11665;SDS011;5889;51.350;6.708;2023-08-17T03:19:05;14.77;;;9.00;;
11665;SDS011;5889;51.350;6.708;2023-08-17T03:21:37;13.67;;;8.80;;
11665;SDS011;5889;51.350;6.708;2023-08-17T03:24:05;15.67;;;9.60;;
11665;SDS011;5889;51.350;6.708;2023-08-17T03:26:32;14.17;;;9.23;;
11665;SDS011;5889;51.350;6.708;2023-08-17T03:28:59;13.47;;;9.40;;
11665;SDS011;5889;51.350;6.708;2023-08-17T03:31:26;14.43;;;9.02;;
11665;SDS011;5889;51.350;6.708;2023-08-17T03:33:53;15.00;;;8.60;;
11665;SDS011;5889;51.350;6.708;2023-08-17T03:36:22;18.73;;;8.70;;
11665;SDS011;5889;51.350;6.708;2023-08-17T03:38:50;11.70;;;9.33;;
11665;SDS011;5889;51.350;6.708;2023-08-17T03:41:18;13.50;;;9.43;;
11665;SDS011;5889;51.350;6.708;2023-08-17T03:43:45;10.97;;;8.80;;
11665;SDS011;5889;51.350;6.708;2023-08-17T03:46:12;14.57;;;9.60;;
11665;SDS011;5889;51.350;6.708;2023-08-17T03:48:39;13.80;;;8.67;;
11665;SDS011;5889;51.350;6.708;2023-08-17T03:51:06;13.17;;;7.97;;
11665;SDS011;5889;51.350;6.708;2023-08-17T03:53:33;13.97;;;7.93;;
11665;SDS011;5889;51.350;6.708;2023-08-17T03:56:01;12.33;;;7.80;;
11665;SDS011;5889;51.350;6.708;2023-08-17T03:58:28;14.30;;;7.80;;
11665;SDS011;5889;51.350;6.708;2023-08-17T04:00:59;11.73;;;7.17;;
11665;SDS011;5889;51.350;6.708;2023-08-17T04:03:26;11.07;;;7.03;;
11665;SDS011;5889;51.350;6.708;2023-08-17T04:05:53;10.07;;;7.00;;
11665;SDS011;5889;51.350;6.708;2023-08-17T04:08:20;14.50;;;6.90;;
11665;SDS011;5889;51.350;6.708;2023-08-17T04:10:47;10.90;;;6.63;;
11665;SDS011;5889;51.350;6.708;2023-08-17T04:13:15;10.30;;;6.40;;
11665;SDS011;5889;51.350;6.708;2023-08-17T04:15:42;12.50;;;6.80;;
11665;SDS011;5889;51.350;6.708;2023-08-17T04:18:09;15.43;;;7.10;;
11665;SDS011;5889;51.350;6.708;2023-08-17T04:20:36;11.77;;;6.70;;
11665;SDS011;5889;51.350;6.708;2023-08-17T04:23:03;12.60;;;6.40;;
11665;SDS011;5889;51.350;6.708;2023-08-17T04:25:30;9.00;;;6.77;;
11665;SDS011;5889;51.350;6.708;2023-08-17T04:27:57;12.10;;;6.93;;
11665;SDS011;5889;51.350;6.708;2023-08-17T04:30:25;9.65;;;6.60;;
11665;SDS011;5889;51.350;6.708;2023-08-17T04:32:52;10.23;;;6.63;;
11665;SDS011;5889;51.350;6.708;2023-08-17T04:35:20;11.93;;;6.97;;
11665;SDS011;5889;51.350;6.708;2023-08-17T04:37:47;12.55;;;6.78;;
11665;SDS011;5889;51.350;6.708;2023-08-17T04:40:14;13.53;;;6.77;;
11665;SDS011;5889;51.350;6.708;2023-08-17T04:42:41;11.73;;;6.93;;
11665;SDS011;5889;51.350;6.708;2023-08-17T04:45:08;18.60;;;7.00;;
11665;SDS011;5889;51.350;6.708;2023-08-17T04:47:37;13.07;;;7.33;;
11665;SDS011;5889;51.350;6.708;2023-08-17T04:50:04;9.73;;;7.60;;
11665;SDS011;5889;51.350;6.708;2023-08-17T04:52:32;12.87;;;6.83;;
11665;SDS011;5889;51.350;6.708;2023-08-17T04:54:59;10.53;;;6.83;;
11665;SDS011;5889;51.350;6.708;2023-08-17T04:57:26;13.73;;;7.37;;
11665;SDS011;5889;51.350;6.708;2023-08-17T04:59:53;11.47;;;7.27;;
11665;SDS011;5889;51.350;6.708;2023-08-17T05:02:20;11.67;;;6.80;;
11665;SDS011;5889;51.350;6.708;2023-08-17T05:04:48;12.30;;;6.73;;
11665;SDS011;5889;51.350;6.708;2023-08-17T05:07:15;14.93;;;7.53;;
11665;SDS011;5889;51.350;6.708;2023-08-17T05:09:42;10.43;;;6.97;;
11665;SDS011;5889;51.350;6.708;2023-08-17T05:12:09;11.30;;;6.67;;
11665;SDS011;5889;51.350;6.708;2023-08-17T05:14:36;15.90;;;7.70;;
11665;SDS011;5889;51.350;6.708;2023-08-17T05:17:03;9.07;;;6.90;;
11665;SDS011;5889;51.350;6.708;2023-08-17T05:19:30;13.10;;;6.87;;
11665;SDS011;5889;51.350;6.708;2023-08-17T05:21:58;10.13;;;6.70;;
11665;SDS011;5889;51.350;6.708;2023-08-17T05:24:25;12.13;;;7.03;;
11665;SDS011;5889;51.350;6.708;2023-08-17T05:26:53;11.87;;;7.50;;
11665;SDS011;5889;51.350;6.708;2023-08-17T05:29:20;11.97;;;7.87;;
11665;SDS011;5889;51.350;6.708;2023-08-17T05:31:47;10.43;;;8.20;;
11665;SDS011;5889;51.350;6.708;2023-08-17T05:34:14;11.30;;;8.40;;
11665;SDS011;5889;51.350;6.708;2023-08-17T05:36:41;9.45;;;7.85;;
11665;SDS011;5889;51.350;6.708;2023-08-17T05:39:09;13.60;;;8.50;;
11665;SDS011;5889;51.350;6.708;2023-08-17T05:41:39;13.10;;;8.55;;
11665;SDS011;5889;51.350;6.708;2023-08-17T05:44:06;17.85;;;10.05;;
11665;SDS011;5889;51.350;6.708;2023-08-17T05:46:34;15.43;;;10.10;;
11665;SDS011;5889;51.350;6.708;2023-08-17T05:49:02;13.82;;;10.05;;
11665;SDS011;5889;51.350;6.708;2023-08-17T05:51:29;16.13;;;10.35;;
11665;SDS011;5889;51.350;6.708;2023-08-17T05:53:56;13.55;;;10.05;;
11665;SDS011;5889;51.350;6.708;2023-08-17T05:56:24;14.75;;;9.65;;
11665;SDS011;5889;51.350;6.708;2023-08-17T05:58:52;13.67;;;9.80;;
11665;SDS011;5889;51.350;6.708;2023-08-17T06:01:19;13.35;;;9.45;;
11665;SDS011;5889;51.350;6.708;2023-08-17T06:03:46;23.23;;;10.70;;
11665;SDS011;5889;51.350;6.708;2023-08-17T06:06:13;18.48;;;11.68;;
11665;SDS011;5889;51.350;6.708;2023-08-17T06:08:40;16.95;;;11.25;;
11665;SDS011;5889;51.350;6.708;2023-08-17T06:11:07;20.20;;;12.48;;
11665;SDS011;5889;51.350;6.708;2023-08-17T06:13:35;21.90;;;11.52;;
11665;SDS011;5889;51.350;6.708;2023-08-17T06:16:02;18.48;;;10.80;;
11665;SDS011;5889;51.350;6.708;2023-08-17T06:18:29;15.10;;;10.32;;
11665;SDS011;5889;51.350;6.708;2023-08-17T06:20:57;19.20;;;12.05;;
11665;SDS011;5889;51.350;6.708;2023-08-17T06:23:23;17.48;;;12.18;;
11665;SDS011;5889;51.350;6.708;2023-08-17T06:25:51;21.33;;;11.43;;
11665;SDS011;5889;51.350;6.708;2023-08-17T06:28:18;20.43;;;12.10;;
11665;SDS011;5889;51.350;6.708;2023-08-17T06:30:46;20.87;;;12.53;;
11665;SDS011;5889;51.350;6.708;2023-08-17T06:33:13;20.90;;;12.70;;
11665;SDS011;5889;51.350;6.708;2023-08-17T06:35:40;22.13;;;12.70;;
11665;SDS011;5889;51.350;6.708;2023-08-17T06:38:07;22.37;;;12.90;;
11665;SDS011;5889;51.350;6.708;2023-08-17T06:40:34;18.38;;;12.02;;
11665;SDS011;5889;51.350;6.708;2023-08-17T06:43:01;20.23;;;14.70;;
11665;SDS011;5889;51.350;6.708;2023-08-17T06:45:28;21.92;;;13.45;;
11665;SDS011;5889;51.350;6.708;2023-08-17T06:47:56;19.88;;;13.60;;
11665;SDS011;5889;51.350;6.708;2023-08-17T06:50:23;25.23;;;15.35;;
11665;SDS011;5889;51.350;6.708;2023-08-17T06:52:51;22.88;;;14.07;;
11665;SDS011;5889;51.350;6.708;2023-08-17T06:55:18;20.75;;;14.73;;
11665;SDS011;5889;51.350;6.708;2023-08-17T06:57:46;23.30;;;14.27;;
11665;SDS011;5889;51.350;6.708;2023-08-17T07:00:15;22.65;;;14.50;;
11665;SDS011;5889;51.350;6.708;2023-08-17T07:02:45;21.98;;;14.98;;
11665;SDS011;5889;51.350;6.708;2023-08-17T07:05:14;24.92;;;14.73;;
11665;SDS011;5889;51.350;6.708;2023-08-17T07:07:41;18.80;;;14.63;;
11665;SDS011;5889;51.350;6.708;2023-08-17T07:10:08;20.40;;;13.90;;
11665;SDS011;5889;51.350;6.708;2023-08-17T07:12:35;19.40;;;14.75;;
11665;SDS011;5889;51.350;6.708;2023-08-17T07:15:03;19.20;;;13.38;;
11665;SDS011;5889;51.350;6.708;2023-08-17T07:17:30;19.55;;;14.35;;
11665;SDS011;5889;51.350;6.708;2023-08-17T07:19:59;26.20;;;14.93;;
11665;SDS011;5889;51.350;6.708;2023-08-17T07:22:27;19.73;;;14.63;;
11665;SDS011;5889;51.350;6.708;2023-08-17T07:24:54;19.95;;;15.48;;
11665;SDS011;5889;51.350;6.708;2023-08-17T07:27:21;19.92;;;15.25;;
11665;SDS011;5889;51.350;6.708;2023-08-17T07:29:48;21.25;;;15.23;;
11665;SDS011;5889;51.350;6.708;2023-08-17T07:32:15;22.10;;;15.63;;
11665;SDS011;5889;51.350;6.708;2023-08-17T07:34:42;24.00;;;15.05;;
11665;SDS011;5889;51.350;6.708;2023-08-17T07:37:09;28.10;;;16.42;;
11665;SDS011;5889;51.350;6.708;2023-08-17T07:39:37;29.23;;;16.15;;
11665;SDS011;5889;51.350;6.708;2023-08-17T07:42:05;25.70;;;16.13;;
11665;SDS011;5889;51.350;6.708;2023-08-17T07:44:31;23.17;;;14.60;;
11665;SDS011;5889;51.350;6.708;2023-08-17T07:47:00;19.33;;;13.65;;
11665;SDS011;5889;51.350;6.708;2023-08-17T07:49:27;21.10;;;13.52;;
11665;SDS011;5889;51.350;6.708;2023-08-17T07:51:54;19.35;;;14.15;;
11665;SDS011;5889;51.350;6.708;2023-08-17T07:54:21;19.52;;;14.25;;
11665;SDS011;5889;51.350;6.708;2023-08-17T07:56:50;21.92;;;14.02;;
11665;SDS011;5889;51.350;6.708;2023-08-17T07:59:17;23.52;;;13.77;;
11665;SDS011;5889;51.350;6.708;2023-08-17T08:01:43;21.23;;;14.07;;
11665;SDS011;5889;51.350;6.708;2023-08-17T08:04:10;22.33;;;13.90;;
11665;SDS011;5889;51.350;6.708;2023-08-17T08:06:39;19.73;;;12.23;;
11665;SDS011;5889;51.350;6.708;2023-08-17T08:09:06;16.58;;;12.02;;
11665;SDS011;5889;51.350;6.708;2023-08-17T08:11:33;18.65;;;13.13;;
11665;SDS011;5889;51.350;6.708;2023-08-17T08:14:02;19.42;;;13.27;;
11665;SDS011;5889;51.350;6.708;2023-08-17T08:16:29;22.45;;;13.23;;
11665;SDS011;5889;51.350;6.708;2023-08-17T08:18:56;19.52;;;13.80;;
11665;SDS011;5889;51.350;6.708;2023-08-17T08:21:23;21.92;;;12.43;;
11665;SDS011;5889;51.350;6.708;2023-08-17T08:23:50;21.08;;;12.85;;
11665;SDS011;5889;51.350;6.708;2023-08-17T08:26:16;20.05;;;13.98;;
11665;SDS011;5889;51.350;6.708;2023-08-17T08:28:44;18.67;;;13.45;;
11665;SDS011;5889;51.350;6.708;2023-08-17T08:31:12;19.48;;;12.68;;
11665;SDS011;5889;51.350;6.708;2023-08-17T08:33:39;19.88;;;13.50;;
11665;SDS011;5889;51.350;6.708;2023-08-17T08:36:06;20.58;;;13.70;;
11665;SDS011;5889;51.350;6.708;2023-08-17T08:38:33;24.08;;;14.48;;
11665;SDS011;5889;51.350;6.708;2023-08-17T08:41:00;22.38;;;13.88;;
11665;SDS011;5889;51.350;6.708;2023-08-17T08:43:28;24.83;;;14.13;;
11665;SDS011;5889;51.350;6.708;2023-08-17T08:45:56;22.63;;;13.60;;
11665;SDS011;5889;51.350;6.708;2023-08-17T08:48:27;24.17;;;13.80;;
11665;SDS011;5889;51.350;6.708;2023-08-17T08:50:56;20.60;;;13.05;;
11665;SDS011;5889;51.350;6.708;2023-08-17T08:53:28;20.05;;;12.10;;
11665;SDS011;5889;51.350;6.708;2023-08-17T08:55:58;20.65;;;13.52;;
11665;SDS011;5889;51.350;6.708;2023-08-17T08:58:27;18.35;;;12.85;;
11665;SDS011;5889;51.350;6.708;2023-08-17T09:00:55;24.40;;;14.05;;
11665;SDS011;5889;51.350;6.708;2023-08-17T09:03:24;23.83;;;14.05;;
11665;SDS011;5889;51.350;6.708;2023-08-17T09:05:53;26.35;;;14.45;;
11665;SDS011;5889;51.350;6.708;2023-08-17T09:08:22;21.25;;;12.82;;
11665;SDS011;5889;51.350;6.708;2023-08-17T09:10:52;22.52;;;13.52;;
11665;SDS011;5889;51.350;6.708;2023-08-17T09:13:19;21.55;;;12.88;;
11665;SDS011;5889;51.350;6.708;2023-08-17T09:15:46;24.40;;;14.05;;
11665;SDS011;5889;51.350;6.708;2023-08-17T09:18:13;26.13;;;15.27;;
11665;SDS011;5889;51.350;6.708;2023-08-17T09:20:43;23.70;;;15.57;;
11665;SDS011;5889;51.350;6.708;2023-08-17T09:23:11;18.88;;;14.50;;
11665;SDS011;5889;51.350;6.708;2023-08-17T09:25:39;19.15;;;14.20;;
11665;SDS011;5889;51.350;6.708;2023-08-17T09:28:08;18.05;;;13.10;;
11665;SDS011;5889;51.350;6.708;2023-08-17T09:33:18;14.75;;;10.60;;
11665;SDS011;5889;51.350;6.708;2023-08-17T09:35:47;18.98;;;11.27;;
11665;SDS011;5889;51.350;6.708;2023-08-17T09:38:14;15.68;;;10.80;;
11665;SDS011;5889;51.350;6.708;2023-08-17T09:40:41;15.85;;;11.02;;
11665;SDS011;5889;51.350;6.708;2023-08-17T09:43:09;12.90;;;10.05;;
11665;SDS011;5889;51.350;6.708;2023-08-17T09:45:37;15.25;;;11.07;;
11665;SDS011;5889;51.350;6.708;2023-08-17T09:48:04;16.90;;;11.07;;
11665;SDS011;5889;51.350;6.708;2023-08-17T09:50:32;20.70;;;10.90;;
11665;SDS011;5889;51.350;6.708;2023-08-17T09:53:00;16.05;;;11.20;;
11665;SDS011;5889;51.350;6.708;2023-08-17T09:55:30;18.55;;;11.68;;
11665;SDS011;5889;51.350;6.708;2023-08-17T09:57:58;18.27;;;11.40;;
11665;SDS011;5889;51.350;6.708;2023-08-17T10:00:26;15.05;;;11.27;;
11665;SDS011;5889;51.350;6.708;2023-08-17T10:02:53;18.80;;;12.57;;
11665;SDS011;5889;51.350;6.708;2023-08-17T10:05:23;20.23;;;12.73;;
11665;SDS011;5889;51.350;6.708;2023-08-17T10:07:53;17.98;;;12.40;;
11665;SDS011;5889;51.350;6.708;2023-08-17T10:10:25;15.88;;;12.45;;
11665;SDS011;5889;51.350;6.708;2023-08-17T10:12:59;18.85;;;12.07;;
11665;SDS011;5889;51.350;6.708;2023-08-17T10:15:37;19.33;;;13.40;;
11665;SDS011;5889;51.350;6.708;2023-08-17T10:18:09;17.98;;;12.35;;
11665;SDS011;5889;51.350;6.708;2023-08-17T10:20:45;18.27;;;13.52;;
11665;SDS011;5889;51.350;6.708;2023-08-17T10:23:22;18.52;;;14.02;;
11665;SDS011;5889;51.350;6.708;2023-08-17T10:25:52;21.38;;;14.13;;
11665;SDS011;5889;51.350;6.708;2023-08-17T10:28:20;20.25;;;13.55;;
11665;SDS011;5889;51.350;6.708;2023-08-17T10:30:50;18.38;;;14.13;;
11665;SDS011;5889;51.350;6.708;2023-08-17T10:33:17;17.60;;;12.80;;
11665;SDS011;5889;51.350;6.708;2023-08-17T10:35:45;19.40;;;13.45;;
11665;SDS011;5889;51.350;6.708;2023-08-17T10:38:12;16.58;;;12.20;;
11665;SDS011;5889;51.350;6.708;2023-08-17T10:40:41;16.73;;;12.18;;
11665;SDS011;5889;51.350;6.708;2023-08-17T10:43:10;17.73;;;13.18;;
11665;SDS011;5889;51.350;6.708;2023-08-17T10:45:37;19.25;;;14.57;;
11665;SDS011;5889;51.350;6.708;2023-08-17T10:51:01;21.08;;;14.45;;
11665;SDS011;5889;51.350;6.708;2023-08-17T10:53:35;23.63;;;15.93;;
11665;SDS011;5889;51.350;6.708;2023-08-17T10:56:07;24.30;;;16.00;;
11665;SDS011;5889;51.350;6.708;2023-08-17T10:58:38;21.27;;;14.88;;
11665;SDS011;5889;51.350;6.708;2023-08-17T11:01:08;19.73;;;14.65;;
11665;SDS011;5889;51.350;6.708;2023-08-17T11:03:36;26.83;;;19.23;;
11665;SDS011;5889;51.350;6.708;2023-08-17T11:06:16;25.50;;;17.27;;
11665;SDS011;5889;51.350;6.708;2023-08-17T11:08:53;22.08;;;18.35;;
11665;SDS011;5889;51.350;6.708;2023-08-17T11:11:24;23.98;;;18.92;;
11665;SDS011;5889;51.350;6.708;2023-08-17T11:13:58;25.67;;;21.50;;
11665;SDS011;5889;51.350;6.708;2023-08-17T11:16:25;24.65;;;18.20;;
11665;SDS011;5889;51.350;6.708;2023-08-17T11:18:52;24.83;;;18.77;;
11665;SDS011;5889;51.350;6.708;2023-08-17T11:21:22;26.13;;;16.65;;
11665;SDS011;5889;51.350;6.708;2023-08-17T11:23:49;19.27;;;15.68;;
11665;SDS011;5889;51.350;6.708;2023-08-17T11:26:17;16.38;;;13.57;;
11665;SDS011;5889;51.350;6.708;2023-08-17T11:28:44;15.07;;;12.57;;
11665;SDS011;5889;51.350;6.708;2023-08-17T11:31:14;19.83;;;14.88;;
11665;SDS011;5889;51.350;6.708;2023-08-17T11:33:41;18.35;;;12.20;;
11665;SDS011;5889;51.350;6.708;2023-08-17T11:36:08;21.27;;;15.48;;
11665;SDS011;5889;51.350;6.708;2023-08-17T11:38:37;19.25;;;14.30;;
11665;SDS011;5889;51.350;6.708;2023-08-17T11:41:05;19.85;;;13.98;;
11665;SDS011;5889;51.350;6.708;2023-08-17T11:43:33;20.90;;;14.88;;
11665;SDS011;5889;51.350;6.708;2023-08-17T11:46:00;18.13;;;14.18;;
11665;SDS011;5889;51.350;6.708;2023-08-17T11:48:29;16.98;;;13.00;;
11665;SDS011;5889;51.350;6.708;2023-08-17T11:50:57;15.77;;;12.38;;
11665;SDS011;5889;51.350;6.708;2023-08-17T11:53:24;15.25;;;12.13;;
11665;SDS011;5889;51.350;6.708;2023-08-17T11:55:58;16.60;;;12.93;;
11665;SDS011;5889;51.350;6.708;2023-08-17T11:58:35;16.52;;;12.25;;
11665;SDS011;5889;51.350;6.708;2023-08-17T12:01:03;15.55;;;11.93;;
11665;SDS011;5889;51.350;6.708;2023-08-17T12:03:37;15.57;;;12.48;;
11665;SDS011;5889;51.350;6.708;2023-08-17T12:06:05;15.43;;;12.75;;
11665;SDS011;5889;51.350;6.708;2023-08-17T12:08:31;19.02;;;13.65;;
11665;SDS011;5889;51.350;6.708;2023-08-17T12:11:00;16.08;;;12.15;;
11665;SDS011;5889;51.350;6.708;2023-08-17T12:13:34;16.48;;;11.82;;
11665;SDS011;5889;51.350;6.708;2023-08-17T12:16:02;14.48;;;11.73;;
11665;SDS011;5889;51.350;6.708;2023-08-17T12:18:31;16.40;;;13.27;;
11665;SDS011;5889;51.350;6.708;2023-08-17T12:21:00;18.52;;;13.23;;
11665;SDS011;5889;51.350;6.708;2023-08-17T12:23:29;16.88;;;12.68;;
11665;SDS011;5889;51.350;6.708;2023-08-17T12:25:59;17.27;;;13.38;;
11665;SDS011;5889;51.350;6.708;2023-08-17T12:28:26;19.10;;;12.93;;
11665;SDS011;5889;51.350;6.708;2023-08-17T12:30:57;16.33;;;12.63;;
11665;SDS011;5889;51.350;6.708;2023-08-17T12:33:25;16.92;;;12.68;;
11665;SDS011;5889;51.350;6.708;2023-08-17T12:35:52;15.73;;;12.70;;
11665;SDS011;5889;51.350;6.708;2023-08-17T12:38:21;17.60;;;12.88;;
11665;SDS011;5889;51.350;6.708;2023-08-17T12:40:49;15.93;;;13.57;;
11665;SDS011;5889;51.350;6.708;2023-08-17T12:43:16;16.77;;;14.07;;
11665;SDS011;5889;51.350;6.708;2023-08-17T12:45:44;18.55;;;13.43;;
11665;SDS011;5889;51.350;6.708;2023-08-17T12:48:11;20.10;;;14.88;;
11665;SDS011;5889;51.350;6.708;2023-08-17T12:50:38;21.38;;;16.40;;
11665;SDS011;5889;51.350;6.708;2023-08-17T12:53:05;20.15;;;15.85;;
11665;SDS011;5889;51.350;6.708;2023-08-17T12:55:33;22.30;;;17.15;;
11665;SDS011;5889;51.350;6.708;2023-08-17T12:58:00;23.30;;;16.20;;
11665;SDS011;5889;51.350;6.708;2023-08-17T13:00:27;22.17;;;16.15;;
11665;SDS011;5889;51.350;6.708;2023-08-17T13:02:54;20.60;;;15.80;;
11665;SDS011;5889;51.350;6.708;2023-08-17T13:05:21;22.58;;;16.73;;
11665;SDS011;5889;51.350;6.708;2023-08-17T13:07:48;25.77;;;17.85;;
11665;SDS011;5889;51.350;6.708;2023-08-17T13:10:15;25.17;;;19.08;;
11665;SDS011;5889;51.350;6.708;2023-08-17T13:12:43;26.60;;;19.02;;
11665;SDS011;5889;51.350;6.708;2023-08-17T13:15:12;28.63;;;20.48;;
11665;SDS011;5889;51.350;6.708;2023-08-17T13:17:39;28.27;;;21.77;;
11665;SDS011;5889;51.350;6.708;2023-08-17T13:20:06;30.73;;;20.88;;
11665;SDS011;5889;51.350;6.708;2023-08-17T13:22:34;28.35;;;20.95;;
11665;SDS011;5889;51.350;6.708;2023-08-17T13:25:01;34.33;;;22.52;;
11665;SDS011;5889;51.350;6.708;2023-08-17T13:27:28;34.33;;;22.90;;
11665;SDS011;5889;51.350;6.708;2023-08-17T13:29:57;33.65;;;21.92;;
11665;SDS011;5889;51.350;6.708;2023-08-17T13:32:24;28.75;;;21.63;;
11665;SDS011;5889;51.350;6.708;2023-08-17T13:34:51;33.08;;;23.00;;
11665;SDS011;5889;51.350;6.708;2023-08-17T13:37:18;33.83;;;22.25;;
11665;SDS011;5889;51.350;6.708;2023-08-17T13:39:45;31.92;;;23.10;;
11665;SDS011;5889;51.350;6.708;2023-08-17T13:42:12;31.83;;;22.02;;
11665;SDS011;5889;51.350;6.708;2023-08-17T13:44:39;32.40;;;23.73;;
11665;SDS011;5889;51.350;6.708;2023-08-17T13:47:08;32.10;;;21.90;;
11665;SDS011;5889;51.350;6.708;2023-08-17T13:49:35;29.67;;;19.65;;
11665;SDS011;5889;51.350;6.708;2023-08-17T13:52:02;30.63;;;22.00;;
11665;SDS011;5889;51.350;6.708;2023-08-17T13:54:29;32.70;;;23.17;;
11665;SDS011;5889;51.350;6.708;2023-08-17T13:56:56;30.80;;;21.92;;
11665;SDS011;5889;51.350;6.708;2023-08-17T13:59:24;32.90;;;23.30;;
11665;SDS011;5889;51.350;6.708;2023-08-17T14:01:52;35.75;;;25.42;;
11665;SDS011;5889;51.350;6.708;2023-08-17T14:04:22;39.90;;;24.67;;
11665;SDS011;5889;51.350;6.708;2023-08-17T14:06:49;35.45;;;25.15;;
11665;SDS011;5889;51.350;6.708;2023-08-17T14:09:17;38.17;;;25.92;;
11665;SDS011;5889;51.350;6.708;2023-08-17T14:11:44;36.78;;;25.88;;
11665;SDS011;5889;51.350;6.708;2023-08-17T14:14:11;34.22;;;25.67;;
11665;SDS011;5889;51.350;6.708;2023-08-17T14:16:38;34.95;;;25.73;;
11665;SDS011;5889;51.350;6.708;2023-08-17T14:19:04;36.35;;;25.10;;
11665;SDS011;5889;51.350;6.708;2023-08-17T14:21:33;37.10;;;24.08;;
11665;SDS011;5889;51.350;6.708;2023-08-17T14:24:00;30.63;;;22.83;;
11665;SDS011;5889;51.350;6.708;2023-08-17T14:26:27;33.60;;;23.52;;
11665;SDS011;5889;51.350;6.708;2023-08-17T14:28:54;33.45;;;23.42;;
11665;SDS011;5889;51.350;6.708;2023-08-17T14:31:20;32.38;;;23.80;;
11665;SDS011;5889;51.350;6.708;2023-08-17T14:33:47;35.40;;;24.02;;
11665;SDS011;5889;51.350;6.708;2023-08-17T14:36:14;33.10;;;25.30;;
11665;SDS011;5889;51.350;6.708;2023-08-17T14:38:43;31.27;;;22.27;;
11665;SDS011;5889;51.350;6.708;2023-08-17T14:41:10;30.60;;;22.30;;
11665;SDS011;5889;51.350;6.708;2023-08-17T14:43:38;34.95;;;22.95;;
11665;SDS011;5889;51.350;6.708;2023-08-17T14:46:05;34.53;;;23.20;;
11665;SDS011;5889;51.350;6.708;2023-08-17T14:48:32;37.42;;;24.27;;
11665;SDS011;5889;51.350;6.708;2023-08-17T14:50:59;34.88;;;22.10;;